Time;durP1;ratioP1;P1;durP2;ratioP2;P2;SDS_P1;SDS_P2;PMS_P1;PMS_P2;Temp;Humidity;BMP_temperature;BMP_pressure;BME280_temperature;BME280_humidity;BME280_pressure;Samples;Min_cycle;Max_cycle;Signal;HPM_P1;HPM_P2
2023/05/01 00:01:18;;;;;;;1999.90;999.90;;;6.40;99.90;;;;;;5045828;28;20490;-72
2023/05/01 00:03:45;;;;;;;1999.90;999.90;;;6.40;99.90;;;;;;5047336;28;20437;-72
2023/05/01 00:06:12;;;;;;;1999.90;999.90;;;6.40;99.90;;;;;;5048114;28;20425;-71
2023/05/01 00:08:38;;;;;;;1999.90;999.90;;;6.40;99.90;;;;;;5048230;28;20548;-72
2023/05/01 00:11:08;;;;;;;1999.90;999.90;;;6.30;99.90;;;;;;5048669;28;20433;-72
2023/05/01 00:13:36;;;;;;;1999.90;999.90;;;6.30;99.90;;;;;;5046685;28;20425;-72
2023/05/01 00:16:08;;;;;;;1999.90;999.90;;;6.30;99.90;;;;;;5049846;28;20479;-71
2023/05/01 00:18:34;;;;;;;1999.90;999.90;;;6.30;99.90;;;;;;5048692;28;20984;-72
2023/05/01 00:21:01;;;;;;;1999.90;999.90;;;6.40;99.90;;;;;;5046598;28;20563;-73
2023/05/01 00:23:28;;;;;;;1999.90;999.90;;;6.40;99.90;;;;;;5048333;28;20433;-72
2023/05/01 00:25:55;;;;;;;1999.90;999.90;;;6.50;99.90;;;;;;5047281;28;20914;-70
2023/05/01 00:28:21;;;;;;;1999.90;999.90;;;6.60;99.90;;;;;;5048841;28;20455;-72
2023/05/01 00:30:50;;;;;;;1999.90;999.90;;;6.60;99.90;;;;;;5047424;28;20498;-72
2023/05/01 00:33:16;;;;;;;1999.90;999.90;;;6.60;99.90;;;;;;5046636;28;20441;-72
2023/05/01 00:35:44;;;;;;;1999.90;999.90;;;6.70;99.90;;;;;;5053349;28;20437;-73
2023/05/01 00:38:10;;;;;;;1999.90;999.90;;;6.60;99.90;;;;;;5063275;28;20429;-72
2023/05/01 00:40:42;;;;;;;1999.90;999.90;;;6.60;99.90;;;;;;5065912;28;20426;-72
2023/05/01 00:43:09;;;;;;;1999.90;999.90;;;6.70;99.90;;;;;;5056294;28;20544;-71
2023/05/01 00:45:36;;;;;;;1999.90;999.90;;;6.70;99.90;;;;;;5046636;28;20426;-72
2023/05/01 00:48:04;;;;;;;1999.90;999.90;;;6.70;99.90;;;;;;5047193;28;20431;-72
2023/05/01 00:50:32;;;;;;;1999.90;999.90;;;6.70;99.90;;;;;;5048590;28;20533;-69
2023/05/01 00:52:58;;;;;;;1999.90;999.90;;;6.60;99.90;;;;;;5048711;28;20455;-72
2023/05/01 00:55:26;;;;;;;1999.90;999.90;;;6.60;99.90;;;;;;5048974;28;20479;-72
2023/05/01 00:57:54;;;;;;;1999.90;999.90;;;6.60;99.90;;;;;;5047727;28;20503;-70
2023/05/01 01:00:23;;;;;;;1999.90;999.90;;;6.60;99.90;;;;;;5047845;28;20440;-71
2023/05/01 01:02:50;;;;;;;1999.90;999.90;;;6.50;99.90;;;;;;5047849;28;20791;-72
2023/05/01 01:05:22;;;;;;;1999.90;999.90;;;6.60;99.90;;;;;;5048015;28;20429;-70
2023/05/01 01:07:58;;;;;;;1999.90;999.90;;;6.40;99.90;;;;;;5041762;28;20495;-73
2023/05/01 01:10:35;;;;;;;1999.90;999.90;;;6.30;99.90;;;;;;5047630;28;20931;-72
2023/05/01 01:13:08;;;;;;;1999.90;999.90;;;6.40;99.90;;;;;;5047774;28;20796;-72
2023/05/01 01:15:40;;;;;;;1999.90;999.90;;;6.40;99.90;;;;;;5048516;28;20429;-72
2023/05/01 01:18:12;;;;;;;1999.90;999.90;;;6.50;99.90;;;;;;5047758;28;20482;-72
2023/05/01 01:20:45;;;;;;;1999.90;999.90;;;6.50;99.90;;;;;;5047291;28;20499;-71
2023/05/01 01:23:42;;;;;;;1999.90;999.90;;;6.50;99.90;;;;;;5046751;28;20512;-72
2023/05/01 01:26:24;;;;;;;1999.90;999.90;;;6.50;99.90;;;;;;5048329;28;20443;-71
2023/05/01 01:29:21;;;;;;;1999.90;999.90;;;6.50;99.90;;;;;;5044322;28;20437;-72
2023/05/01 01:32:00;;;;;;;1999.90;999.90;;;6.40;99.90;;;;;;5041343;28;20789;-72
2023/05/01 01:34:34;;;;;;;1999.90;999.90;;;6.40;99.90;;;;;;5046264;28;20432;-72
2023/05/01 01:37:04;;;;;;;1999.90;999.90;;;6.40;99.90;;;;;;5045262;28;20452;-72
2023/05/01 01:39:43;;;;;;;1999.90;999.90;;;6.40;99.90;;;;;;5047688;28;20498;-70
2023/05/01 01:42:13;;;;;;;1999.90;999.90;;;6.30;99.90;;;;;;5047068;28;20491;-72
2023/05/01 01:44:47;;;;;;;1999.90;999.90;;;6.30;99.90;;;;;;5040611;28;20437;-70
2023/05/01 01:47:15;;;;;;;1999.90;999.90;;;6.40;99.90;;;;;;5049481;28;20551;-72
2023/05/01 01:49:48;;;;;;;1999.90;999.90;;;6.60;99.90;;;;;;5047960;28;20433;-71
2023/05/01 01:52:17;;;;;;;1999.90;999.90;;;6.70;99.90;;;;;;5048053;28;20519;-72
2023/05/01 01:54:50;;;;;;;1999.90;999.90;;;7.00;99.90;;;;;;5051213;28;20429;-72
2023/05/01 01:57:20;;;;;;;1999.90;999.90;;;7.20;99.90;;;;;;5049885;28;20429;-71
2023/05/01 01:59:48;;;;;;;1999.90;999.90;;;7.30;99.90;;;;;;5044168;28;20440;-72
2023/05/01 02:02:16;;;;;;;1999.90;999.90;;;7.40;99.90;;;;;;5050759;28;20433;-72
2023/05/01 02:04:45;;;;;;;1999.90;999.90;;;7.50;99.90;;;;;;5048635;28;20483;-73
2023/05/01 02:07:14;;;;;;;1999.90;999.90;;;7.50;99.90;;;;;;5047003;28;20425;-72
2023/05/01 02:09:43;;;;;;;1999.90;999.90;;;7.50;99.90;;;;;;5044770;28;20490;-71
2023/05/01 02:12:12;;;;;;;1999.90;999.90;;;7.50;99.90;;;;;;5050916;28;20433;-72
2023/05/01 02:14:39;;;;;;;1999.90;999.90;;;7.60;99.90;;;;;;5049939;28;20436;-71
2023/05/01 02:17:07;;;;;;;1999.90;999.90;;;7.60;99.90;;;;;;5050807;28;20537;-71
2023/05/01 02:19:35;;;;;;;1999.90;999.90;;;7.60;99.90;;;;;;5048840;28;20842;-72
2023/05/01 02:22:04;;;;;;;1999.90;999.90;;;7.70;99.90;;;;;;5050503;28;20475;-69
2023/05/01 02:24:31;;;;;;;1999.90;999.90;;;7.70;99.90;;;;;;5050452;28;20515;-71
2023/05/01 02:27:05;;;;;;;1999.90;999.90;;;7.70;99.90;;;;;;5050464;28;20432;-71
2023/05/01 02:29:32;;;;;;;1999.90;999.90;;;7.70;99.90;;;;;;5049066;28;20447;-70
2023/05/01 02:32:00;;;;;;;1999.90;999.90;;;7.70;99.90;;;;;;5050446;28;20927;-71
2023/05/01 02:34:26;;;;;;;1999.90;999.90;;;7.60;99.90;;;;;;5049414;28;20457;-72
2023/05/01 02:36:53;;;;;;;1999.90;999.90;;;7.50;99.90;;;;;;5043502;28;20425;-71
2023/05/01 02:39:21;;;;;;;1999.90;999.90;;;7.50;99.90;;;;;;5050270;28;20429;-71
2023/05/01 02:41:49;;;;;;;1999.90;999.90;;;7.50;99.90;;;;;;5049027;28;20919;-72
2023/05/01 02:44:17;;;;;;;1999.90;999.90;;;7.40;99.90;;;;;;5049346;28;20437;-72
2023/05/01 02:46:46;;;;;;;1999.90;999.90;;;7.40;99.90;;;;;;5048602;28;20427;-72
2023/05/01 02:49:14;;;;;;;1999.90;999.90;;;7.40;99.90;;;;;;5049438;28;20436;-69
2023/05/01 02:51:42;;;;;;;1999.90;999.90;;;7.40;99.90;;;;;;5050101;28;20433;-71
2023/05/01 02:54:09;;;;;;;1999.90;999.90;;;7.30;99.90;;;;;;5049105;28;20997;-71
2023/05/01 02:56:37;;;;;;;1999.90;999.90;;;7.30;99.90;;;;;;5048335;28;20467;-71
2023/05/01 02:59:04;;;;;;;1999.90;999.90;;;7.30;99.90;;;;;;5049237;28;20440;-70
2023/05/01 03:01:31;;;;;;;1999.90;999.90;;;7.30;99.90;;;;;;5049972;28;20443;-72
2023/05/01 03:03:58;;;;;;;1999.90;999.90;;;7.20;99.90;;;;;;5049716;28;20845;-71
2023/05/01 03:06:27;;;;;;;1999.90;999.90;;;7.20;99.90;;;;;;5047350;28;20437;-72
2023/05/01 03:08:54;;;;;;;1999.90;999.90;;;7.10;99.90;;;;;;5049416;28;20445;-72
2023/05/01 03:11:21;;;;;;;1999.90;999.90;;;7.10;99.90;;;;;;5049645;28;20433;-70
2023/05/01 03:13:49;;;;;;;1999.90;999.90;;;7.00;99.90;;;;;;5049431;28;20494;-72
2023/05/01 03:16:15;;;;;;;1999.90;999.90;;;7.10;99.90;;;;;;5048389;28;20429;-72
2023/05/01 03:18:42;;;;;;;1999.90;999.90;;;7.10;99.90;;;;;;5047613;28;20489;-72
2023/05/01 03:21:09;;;;;;;1999.90;999.90;;;7.20;99.90;;;;;;5049584;28;20433;-71
2023/05/01 03:23:37;;;;;;;1999.90;999.90;;;7.30;99.90;;;;;;5049139;28;20463;-72
2023/05/01 03:26:03;;;;;;;1999.90;999.90;;;7.30;99.90;;;;;;5048655;28;20939;-71
2023/05/01 03:28:30;;;;;;;1999.90;999.90;;;7.30;99.90;;;;;;5047189;28;21204;-71
2023/05/01 03:30:58;;;;;;;1999.90;999.90;;;7.30;99.90;;;;;;5048729;28;20433;-72
2023/05/01 03:33:25;;;;;;;1999.90;999.90;;;7.20;99.90;;;;;;5049352;28;20498;-71
2023/05/01 03:36:00;;;;;;;1999.90;999.90;;;7.20;99.90;;;;;;5049428;28;20487;-71
2023/05/01 03:38:27;;;;;;;1999.90;999.90;;;7.10;99.90;;;;;;5045658;28;20429;-72
2023/05/01 03:40:53;;;;;;;1999.90;999.90;;;7.10;99.90;;;;;;5046416;28;20429;-72
2023/05/01 03:43:20;;;;;;;1999.90;999.90;;;7.20;99.90;;;;;;5049204;28;20433;-72
2023/05/01 03:45:46;;;;;;;1999.90;999.90;;;7.20;99.90;;;;;;5047133;28;20850;-71
2023/05/01 03:48:15;;;;;;;1999.90;999.90;;;7.30;99.90;;;;;;5048513;28;20471;-71
2023/05/01 03:50:41;;;;;;;1999.90;999.90;;;7.20;99.90;;;;;;5047314;28;20992;-72
2023/05/01 03:53:08;;;;;;;1999.90;999.90;;;7.30;99.90;;;;;;5049068;28;20433;-72
2023/05/01 03:55:34;;;;;;;1999.90;999.90;;;7.30;99.90;;;;;;5048790;28;20434;-72
2023/05/01 03:58:01;;;;;;;1999.90;999.90;;;7.20;99.90;;;;;;5047658;28;20475;-72
2023/05/01 04:00:28;;;;;;;1999.90;999.90;;;7.10;99.90;;;;;;5047679;28;20436;-72
2023/05/01 04:02:55;;;;;;;1999.90;999.90;;;7.00;99.90;;;;;;5048515;28;20522;-73
2023/05/01 04:05:23;;;;;;;1999.90;999.90;;;7.00;99.90;;;;;;5049142;28;20448;-72
2023/05/01 04:07:50;;;;;;;1999.90;999.90;;;7.00;99.90;;;;;;5046684;28;20426;-71
2023/05/01 04:10:17;;;;;;;1999.90;999.90;;;7.00;99.90;;;;;;5048372;28;20500;-73
2023/05/01 04:12:43;;;;;;;1999.90;999.90;;;6.90;99.90;;;;;;5047078;28;20440;-72
2023/05/01 04:15:11;;;;;;;1999.90;999.90;;;6.90;99.90;;;;;;5048749;28;20467;-72
2023/05/01 04:17:38;;;;;;;1999.90;999.90;;;6.90;99.90;;;;;;5047498;28;20857;-71
2023/05/01 04:20:05;;;;;;;1999.90;999.90;;;6.90;99.90;;;;;;5048188;28;20508;-72
2023/05/01 04:22:34;;;;;;;1999.90;999.90;;;6.70;99.90;;;;;;5048050;28;20514;-71
2023/05/01 04:25:00;;;;;;;1999.90;999.90;;;6.80;99.90;;;;;;5046955;28;20927;-72
2023/05/01 04:27:27;;;;;;;1999.90;999.90;;;6.80;99.90;;;;;;5047552;28;20455;-72
2023/05/01 04:29:54;;;;;;;1999.90;999.90;;;6.90;99.90;;;;;;5047527;28;20441;-70
2023/05/01 04:32:21;;;;;;;1999.90;999.90;;;7.00;99.90;;;;;;5047874;28;20985;-72
2023/05/01 04:34:48;;;;;;;1999.90;999.90;;;7.10;99.90;;;;;;5048459;28;20550;-71
2023/05/01 04:37:16;;;;;;;1999.90;999.90;;;7.00;99.90;;;;;;5047357;28;20449;-72
2023/05/01 04:39:44;;;;;;;1999.90;999.90;;;6.90;99.90;;;;;;5045858;28;20468;-71
2023/05/01 04:42:11;;;;;;;1999.90;999.90;;;6.80;99.90;;;;;;5047124;28;20442;-72
2023/05/01 04:44:38;;;;;;;1999.90;999.90;;;6.90;99.90;;;;;;5047144;28;20949;-71
2023/05/01 04:47:04;;;;;;;1999.90;999.90;;;7.00;99.90;;;;;;5048038;28;20620;-71
2023/05/01 04:49:31;;;;;;;1999.90;999.90;;;7.10;99.90;;;;;;5046814;28;20440;-72
2023/05/01 04:51:58;;;;;;;1999.90;999.90;;;7.10;99.90;;;;;;5046201;28;20437;-72
2023/05/01 04:54:25;;;;;;;1999.90;999.90;;;7.00;99.90;;;;;;5048131;28;20516;-72
2023/05/01 04:56:53;;;;;;;1999.90;999.90;;;7.10;99.90;;;;;;5044074;28;20804;-72
2023/05/01 04:59:19;;;;;;;1999.90;999.90;;;7.20;99.90;;;;;;5048273;28;20425;-72
2023/05/01 05:01:46;;;;;;;1999.90;999.90;;;7.40;99.90;;;;;;5046630;28;20432;-73
2023/05/01 05:04:13;;;;;;;1999.90;999.90;;;7.50;99.90;;;;;;5047985;28;20915;-72
2023/05/01 05:06:39;;;;;;;1999.90;999.90;;;7.60;99.90;;;;;;5048445;28;20433;-72
2023/05/01 05:09:06;;;;;;;1999.90;999.90;;;7.60;99.90;;;;;;5048693;28;20425;-72
2023/05/01 05:11:32;;;;;;;1999.90;999.90;;;7.50;99.90;;;;;;5062550;28;20498;-72
2023/05/01 05:14:00;;;;;;;1999.90;999.90;;;7.50;99.90;;;;;;5064494;28;20866;-72
2023/05/01 05:16:27;;;;;;;1999.90;999.90;;;7.50;99.90;;;;;;5061644;28;20463;-71
2023/05/01 05:18:55;;;;;;;1999.90;999.90;;;7.40;99.90;;;;;;5048790;28;20934;-72
2023/05/01 05:21:22;;;;;;;1999.90;999.90;;;7.50;99.90;;;;;;5050761;28;20936;-70
2023/05/01 05:23:49;;;;;;;1999.90;999.90;;;7.90;99.90;;;;;;5051169;28;20478;-72
2023/05/01 05:26:16;;;;;;;1999.90;999.90;;;8.40;99.90;;;;;;5060592;22;20438;-77
2023/05/01 05:28:44;;;;;;;1999.90;999.90;;;8.40;99.90;;;;;;5037489;28;20480;-75
2023/05/01 05:31:11;;;;;;;1999.90;999.90;;;9.30;99.90;;;;;;5035483;28;20434;-72
2023/05/01 05:33:38;;;;;;;1999.90;999.90;;;9.50;99.90;;;;;;5042018;28;20842;-73
2023/05/01 05:36:05;;;;;;;1999.90;999.90;;;9.80;99.90;;;;;;5038508;28;20492;-74
2023/05/01 05:38:32;;;;;;;1999.90;999.90;;;10.00;99.90;;;;;;5032805;28;20469;-76
2023/05/01 05:40:59;;;;;;;1999.90;999.90;;;10.20;99.90;;;;;;5033528;28;20843;-75
2023/05/01 05:43:26;;;;;;;1999.90;999.90;;;10.30;99.90;;;;;;5031579;28;20442;-76
2023/05/01 05:45:56;;;;;;;1999.90;999.90;;;10.40;99.90;;;;;;5031728;28;20456;-75
2023/05/01 05:48:24;;;;;;;1999.90;999.90;;;10.50;99.90;;;;;;5028474;28;20845;-72
2023/05/01 05:50:51;;;;;;;1999.90;999.90;;;10.60;99.90;;;;;;5035303;28;20443;-74
2023/05/01 05:53:18;;;;;;;1999.90;999.90;;;10.70;99.90;;;;;;5030435;28;20517;-74
2023/05/01 05:55:46;;;;;;;1999.90;999.90;;;10.80;99.70;;;;;;5031101;28;20435;-75
2023/05/01 05:58:18;;;;;;;1999.90;999.90;;;10.80;99.50;;;;;;5030799;28;20431;-74
2023/05/01 06:00:45;;;;;;;1999.90;999.90;;;10.90;99.40;;;;;;5031444;28;20435;-76
2023/05/01 06:03:12;;;;;;;1999.90;999.90;;;10.80;99.00;;;;;;5035669;28;20451;-74
2023/05/01 06:05:40;;;;;;;1999.90;999.90;;;10.90;98.80;;;;;;5033146;28;20933;-73
2023/05/01 06:08:09;;;;;;;1999.90;999.90;;;11.10;99.10;;;;;;5030068;28;20621;-75
2023/05/01 06:10:36;;;;;;;1999.90;999.90;;;11.10;98.60;;;;;;5030424;28;20463;-74
2023/05/01 06:13:02;;;;;;;1999.90;999.90;;;11.20;99.10;;;;;;5035074;28;20427;-72
2023/05/01 06:15:29;;;;;;;1999.90;999.90;;;11.30;99.20;;;;;;5036126;28;20457;-74
2023/05/01 06:17:56;;;;;;;1999.90;999.90;;;11.50;99.00;;;;;;5030945;28;20435;-75
2023/05/01 06:20:23;;;;;;;1999.90;999.90;;;11.60;99.10;;;;;;5029202;28;20434;-74
2023/05/01 06:22:51;;;;;;;1999.90;999.90;;;11.50;98.80;;;;;;5032321;28;20493;-73
2023/05/01 06:25:18;;;;;;;1999.90;999.90;;;11.50;99.10;;;;;;5027676;28;20431;-73
2023/05/01 06:27:45;;;;;;;1999.90;999.90;;;11.50;98.80;;;;;;5028238;28;20431;-74
2023/05/01 06:30:12;;;;;;;1999.90;999.90;;;11.60;99.20;;;;;;5031867;28;20419;-74
2023/05/01 06:32:40;;;;;;;1999.90;999.90;;;11.60;99.40;;;;;;5029628;28;20441;-74
2023/05/01 06:35:08;;;;;;;1999.90;999.90;;;11.70;99.20;;;;;;5031939;28;20430;-70
2023/05/01 06:37:34;;;;;;;1999.90;999.90;;;11.90;98.40;;;;;;5030706;28;20430;-72
2023/05/01 06:40:03;;;;;;;1999.90;999.90;;;12.00;98.40;;;;;;5031817;28;20439;-74
2023/05/01 06:42:30;;;;;;;1999.90;999.90;;;12.20;98.30;;;;;;5031579;28;20423;-74
2023/05/01 06:44:57;;;;;;;1999.90;999.90;;;12.40;98.30;;;;;;5031548;28;20959;-74
2023/05/01 06:47:23;;;;;;;1999.90;999.90;;;12.40;98.00;;;;;;5027406;28;20438;-75
2023/05/01 06:49:50;;;;;;;1999.90;999.90;;;12.50;98.40;;;;;;5026509;28;20926;-74
2023/05/01 06:52:16;;;;;;;1999.90;999.90;;;12.50;97.80;;;;;;5029089;28;20431;-74
2023/05/01 06:54:43;;;;;;;1999.90;999.90;;;12.80;97.70;;;;;;5033940;28;20481;-74
2023/05/01 06:57:11;;;;;;;1999.90;999.90;;;13.00;96.90;;;;;;5030000;28;20438;-74
2023/05/01 06:59:39;;;;;;;1999.90;999.90;;;13.20;97.00;;;;;;5029907;28;20433;-71
2023/05/01 07:02:05;;;;;;;1999.90;999.90;;;13.30;96.30;;;;;;5028358;28;20438;-74
2023/05/01 07:04:32;;;;;;;1999.90;999.90;;;13.40;96.20;;;;;;5029826;28;20516;-74
2023/05/01 07:06:59;;;;;;;1999.90;999.90;;;13.70;96.40;;;;;;5030638;28;20463;-74
2023/05/01 07:09:26;;;;;;;1999.90;999.90;;;13.90;96.60;;;;;;5025082;28;20809;-71
2023/05/01 07:11:55;;;;;;;1999.90;999.90;;;14.00;96.60;;;;;;5032161;28;20880;-73
2023/05/01 07:14:23;;;;;;;1999.90;999.90;;;14.10;96.80;;;;;;5026538;28;20573;-73
2023/05/01 07:16:50;;;;;;;1999.90;999.90;;;14.30;96.90;;;;;;5028127;28;20434;-73
2023/05/01 07:19:17;;;;;;;1999.90;999.90;;;14.60;97.30;;;;;;5029364;28;20431;-73
2023/05/01 07:21:43;;;;;;;1999.90;999.90;;;14.90;95.90;;;;;;5027578;28;20441;-75
2023/05/01 07:24:11;;;;;;;1999.90;999.90;;;15.00;96.20;;;;;;5028680;28;20434;-74
2023/05/01 07:26:38;;;;;;;1999.90;999.90;;;15.10;96.60;;;;;;5030573;28;20450;-74
2023/05/01 07:29:04;;;;;;;1999.90;999.90;;;15.20;96.10;;;;;;5030272;28;20437;-73
2023/05/01 07:31:32;;;;;;;1999.90;999.90;;;15.20;95.00;;;;;;5030404;28;20805;-72
2023/05/01 07:33:59;;;;;;;1999.90;999.90;;;15.30;95.90;;;;;;5027238;28;20917;-74
2023/05/01 07:36:27;;;;;;;1999.90;999.90;;;15.60;96.10;;;;;;5031100;28;20426;-74
2023/05/01 07:38:54;;;;;;;1999.90;999.90;;;15.90;95.20;;;;;;5040052;28;20474;-74
2023/05/01 07:41:21;;;;;;;1999.90;999.90;;;16.00;95.30;;;;;;5028531;28;20514;-74
2023/05/01 07:43:48;;;;;;;1999.90;999.90;;;16.10;93.90;;;;;;5031261;28;20459;-74
2023/05/01 07:46:14;;;;;;;1999.90;999.90;;;15.90;93.30;;;;;;5027806;28;20434;-74
2023/05/01 07:48:43;;;;;;;1999.90;999.90;;;15.80;93.50;;;;;;5032703;28;20425;-74
2023/05/01 07:51:09;;;;;;;1999.90;999.90;;;16.10;93.80;;;;;;5031898;28;20428;-74
2023/05/01 07:53:37;;;;;;;1999.90;999.90;;;16.10;93.50;;;;;;5020167;28;20452;-74
2023/05/01 07:56:07;;;;;;;1999.90;999.90;;;16.10;93.00;;;;;;5039435;28;20467;-73
2023/05/01 07:58:34;;;;;;;1999.90;999.90;;;16.00;93.20;;;;;;5031279;28;20840;-74
2023/05/01 08:01:02;;;;;;;1999.90;999.90;;;16.10;93.70;;;;;;5027009;28;20461;-73
2023/05/01 08:03:29;;;;;;;1999.90;999.90;;;16.30;93.70;;;;;;5028643;28;20843;-73
2023/05/01 08:05:57;;;;;;;1999.90;999.90;;;16.10;93.60;;;;;;5022731;28;20419;-74
2023/05/01 08:08:24;;;;;;;1999.90;999.90;;;16.20;93.60;;;;;;5029942;28;20500;-74
2023/05/01 08:10:51;;;;;;;1999.90;999.90;;;16.50;93.60;;;;;;5011837;28;20427;-74
2023/05/01 08:13:18;;;;;;;1999.90;999.90;;;16.50;92.60;;;;;;5011722;28;20420;-73
2023/05/01 08:15:46;;;;;;;1999.90;999.90;;;16.90;92.40;;;;;;5030125;28;20438;-74
2023/05/01 08:18:18;;;;;;;1999.90;999.90;;;17.10;93.00;;;;;;5028399;28;20435;-73
2023/05/01 08:20:45;;;;;;;1999.90;999.90;;;17.30;92.30;;;;;;5028997;28;20441;-74
2023/05/01 08:23:14;;;;;;;1999.90;999.90;;;17.10;90.70;;;;;;5032465;28;20447;-74
2023/05/01 08:25:40;;;;;;;1999.90;999.90;;;17.00;90.60;;;;;;5029539;28;20438;-74
2023/05/01 08:28:07;;;;;;;1999.90;999.90;;;17.00;92.20;;;;;;5030383;28;20496;-74
2023/05/01 08:30:34;;;;;;;1999.90;999.90;;;17.20;92.50;;;;;;5027268;28;20924;-72
2023/05/01 08:33:00;;;;;;;1999.90;999.90;;;17.50;91.80;;;;;;5027542;28;20812;-73
2023/05/01 08:35:27;;;;;;;1999.90;999.90;;;17.50;91.10;;;;;;5030738;28;20470;-72
2023/05/01 08:37:54;;;;;;;1999.90;999.90;;;17.70;91.40;;;;;;5029781;28;20427;-73
2023/05/01 08:40:23;;;;;;;1999.90;999.90;;;17.80;91.30;;;;;;5029721;28;20419;-74
2023/05/01 08:42:50;;;;;;;1999.90;999.90;;;18.00;91.10;;;;;;5028315;28;20457;-73
2023/05/01 08:45:20;;;;;;;1999.90;999.90;;;18.00;91.30;;;;;;5023957;28;20421;-74
2023/05/01 08:47:49;;;;;;;1999.90;999.90;;;18.00;90.10;;;;;;5009512;28;20421;-74
2023/05/01 08:50:17;;;;;;;1999.90;999.90;;;18.10;90.90;;;;;;5010527;28;20826;-73
2023/05/01 08:52:44;;;;;;;1999.90;999.90;;;18.20;90.80;;;;;;5010453;28;20554;-74
2023/05/01 08:55:13;;;;;;;1999.90;999.90;;;18.10;87.40;;;;;;5020586;28;20442;-74
2023/05/01 08:57:45;;;;;;;1999.90;999.90;;;18.10;89.10;;;;;;5024732;28;20838;-74
2023/05/01 09:00:18;;;;;;;1999.90;999.90;;;18.00;90.30;;;;;;5014682;28;20945;-74
2023/05/01 09:02:47;;;;;;;1999.90;999.90;;;18.00;90.30;;;;;;5016716;28;20939;-74
2023/05/01 09:05:16;;;;;;;1999.90;999.90;;;17.90;91.10;;;;;;5033110;28;20481;-74
2023/05/01 09:07:43;;;;;;;1999.90;999.90;;;17.90;90.90;;;;;;5031626;28;20580;-73
2023/05/01 09:10:11;;;;;;;1999.90;999.90;;;18.40;91.40;;;;;;5014792;28;20508;-72
2023/05/01 09:12:39;;;;;;;1999.90;999.90;;;18.70;90.40;;;;;;5014832;28;20486;-73
2023/05/01 09:15:09;;;;;;;1999.90;999.90;;;18.90;88.40;;;;;;5016143;28;20565;-74
2023/05/01 09:17:36;;;;;;;1999.90;999.90;;;19.00;86.50;;;;;;5033750;28;20501;-73
2023/05/01 09:20:04;;;;;;;1999.90;999.90;;;19.00;88.40;;;;;;5014513;28;20523;-73
2023/05/01 09:22:32;;;;;;;1999.90;999.90;;;19.30;86.00;;;;;;5014673;28;20907;-73
2023/05/01 09:24:59;;;;;;;1999.90;999.90;;;19.40;82.40;;;;;;5014386;28;21016;-74
2023/05/01 09:27:27;;;;;;;1999.90;999.90;;;19.40;83.50;;;;;;5015831;28;20821;-73
2023/05/01 09:29:53;;;;;;;1999.90;999.90;;;19.60;87.00;;;;;;5031201;28;20421;-73
2023/05/01 09:32:26;;;;;;;1999.90;999.90;;;19.80;85.40;;;;;;5014407;28;20420;-73
2023/05/01 09:34:53;;;;;;;1999.90;999.90;;;19.90;84.00;;;;;;5014648;28;20973;-73
2023/05/01 09:37:28;;;;;;;1999.90;999.90;;;19.80;81.10;;;;;;5014297;28;20424;-74
2023/05/01 09:40:06;;;;;;;1999.90;999.90;;;20.30;79.20;;;;;;5019223;28;20517;-75
2023/05/01 09:42:34;;;;;;;1999.90;999.90;;;20.00;81.00;;;;;;5025467;28;20424;-73
2023/05/01 09:45:01;;;;;;;1999.90;999.90;;;20.60;81.40;;;;;;5014191;28;20428;-73
2023/05/01 09:47:30;;;;;;;1999.90;999.90;;;20.90;77.90;;;;;;5014434;28;20482;-74
2023/05/01 09:49:58;;;;;;;1999.90;999.90;;;20.70;78.70;;;;;;5014837;28;20827;-73
2023/05/01 09:52:26;;;;;;;1999.90;999.90;;;20.30;78.70;;;;;;5022811;28;20439;-71
2023/05/01 09:55:12;;;;;;;1999.90;999.90;;;20.10;80.10;;;;;;5022406;28;20482;-73
2023/05/01 09:57:39;;;;;;;1999.90;999.90;;;20.20;80.80;;;;;;5014498;28;20412;-74
2023/05/01 10:00:07;;;;;;;1999.90;999.90;;;20.50;78.00;;;;;;5014134;28;20822;-73
2023/05/01 10:02:35;;;;;;;1999.90;999.90;;;20.80;81.40;;;;;;5013911;28;20417;-73
2023/05/01 10:05:02;;;;;;;1999.90;999.90;;;21.10;80.50;;;;;;5027061;28;20484;-71
2023/05/01 10:07:29;;;;;;;1999.90;999.90;;;21.50;77.60;;;;;;5016854;28;20432;-72
2023/05/01 10:09:56;;;;;;;1999.90;999.90;;;21.30;76.40;;;;;;5013544;28;20891;-75
2023/05/01 10:12:24;;;;;;;1999.90;999.90;;;21.30;75.60;;;;;;5013245;28;20444;-72
2023/05/01 10:14:52;;;;;;;1999.90;999.90;;;21.10;75.30;;;;;;5013189;28;20412;-76
2023/05/01 10:17:20;;;;;;;1999.90;999.90;;;20.90;75.90;;;;;;5031542;28;20866;-73
2023/05/01 10:19:48;;;;;;;1999.90;999.90;;;20.90;75.40;;;;;;5015023;28;20432;-73
2023/05/01 10:22:16;;;;;;;1999.90;999.90;;;20.40;79.90;;;;;;5013842;28;20456;-73
2023/05/01 10:24:44;;;;;;;1999.90;999.90;;;20.60;77.70;;;;;;5013572;28;20425;-73
2023/05/01 10:27:12;;;;;;;1999.90;999.90;;;21.00;76.80;;;;;;5013806;28;20421;-73
2023/05/01 10:29:40;;;;;;;1999.90;999.90;;;21.00;74.40;;;;;;5031597;28;20419;-73
2023/05/01 10:32:08;;;;;;;1999.90;999.90;;;21.10;75.40;;;;;;5013420;28;20436;-74
2023/05/01 10:34:37;;;;;;;1999.90;999.90;;;21.20;76.70;;;;;;5013469;28;20421;-74
2023/05/01 10:37:11;;;;;;;1999.90;999.90;;;21.10;76.20;;;;;;5013409;28;20428;-73
2023/05/01 10:39:38;;;;;;;1999.90;999.90;;;21.10;77.50;;;;;;5015549;28;20567;-73
2023/05/01 10:42:09;;;;;;;1999.90;999.90;;;20.80;74.80;;;;;;5032464;28;20520;-71
2023/05/01 10:44:36;;;;;;;1999.90;999.90;;;21.00;75.60;;;;;;5024235;28;20431;-73
2023/05/01 10:47:40;;;;;;;1999.90;999.90;;;21.10;75.00;;;;;;5013151;28;20424;-73
2023/05/01 10:50:08;;;;;;;1999.90;999.90;;;21.50;76.60;;;;;;5013154;28;20487;-73
2023/05/01 10:53:13;;;;;;;1999.90;999.90;;;21.40;73.90;;;;;;5020352;28;20437;-73
2023/05/01 10:55:42;;;;;;;1999.90;999.90;;;21.40;73.30;;;;;;5023249;28;20431;-73
2023/05/01 10:58:09;;;;;;;1999.90;999.90;;;21.50;72.10;;;;;;5013257;28;20420;-73
2023/05/01 11:00:36;;;;;;;1999.90;999.90;;;21.40;72.70;;;;;;5013203;28;20455;-73
2023/05/01 11:03:39;;;;;;;1999.90;999.90;;;21.30;73.30;;;;;;5012721;28;20421;-73
2023/05/01 11:06:06;;;;;;;1999.90;999.90;;;20.80;79.60;;;;;;5025632;28;20419;-73
2023/05/01 11:08:34;;;;;;;1999.90;999.90;;;20.20;81.30;;;;;;5032590;28;20419;-72
2023/05/01 11:11:34;;;;;;;1999.90;999.90;;;20.00;82.00;;;;;;5033045;28;20418;-72
2023/05/01 11:14:03;;;;;;;1999.90;999.90;;;19.80;81.80;;;;;;5032528;28;20921;-73
2023/05/01 11:16:46;;;;;;;1999.90;999.90;;;19.80;83.80;;;;;;5031836;28;20493;-72
2023/05/01 11:19:49;;;;;;;1999.90;999.90;;;20.00;84.00;;;;;;5026179;28;20415;-73
2023/05/01 11:22:17;;;;;;;1999.90;999.90;;;20.10;83.10;;;;;;5026977;28;20447;-73
2023/05/01 11:27:14;;;;;;;1999.90;999.90;;;20.70;81.40;;;;;;5087420;28;20418;-73
2023/05/01 11:29:47;;;;;;;1999.90;999.90;;;20.90;80.80;;;;;;5100448;28;20834;-73
2023/05/01 11:32:18;;;;;;;1999.90;999.90;;;21.00;79.60;;;;;;5111936;28;20412;-73
2023/05/01 11:34:46;;;;;;;1999.90;999.90;;;21.20;82.30;;;;;;5111809;28;20878;-72
2023/05/01 11:37:13;;;;;;;1999.90;999.90;;;21.40;80.00;;;;;;5111703;28;20404;-73
2023/05/01 11:39:48;;;;;;;1999.90;999.90;;;21.50;79.00;;;;;;5107610;28;20433;-71
2023/05/01 11:42:14;;;;;;;1999.90;999.90;;;21.70;79.70;;;;;;5103302;28;20408;-71
2023/05/01 11:44:42;;;;;;;1999.90;999.90;;;22.00;75.90;;;;;;5111719;28;20457;-72
2023/05/01 11:47:09;;;;;;;1999.90;999.90;;;21.80;77.70;;;;;;5111650;28;20407;-73
2023/05/01 11:49:36;;;;;;;1999.90;999.90;;;21.90;75.30;;;;;;5111481;28;20400;-72
2023/05/01 11:52:03;;;;;;;1999.90;999.90;;;22.00;75.60;;;;;;5104379;28;20434;-72
2023/05/01 11:54:29;;;;;;;1999.90;999.90;;;22.10;77.50;;;;;;5099000;28;20428;-72
2023/05/01 11:57:00;;;;;;;1999.90;999.90;;;22.30;77.60;;;;;;5094974;28;20428;-73
2023/05/01 11:59:27;;;;;;;1999.90;999.90;;;22.70;74.70;;;;;;5111445;28;20409;-73
2023/05/01 12:01:55;;;;;;;1999.90;999.90;;;22.30;75.00;;;;;;5111665;28;20408;-73
2023/05/01 12:04:27;;;;;;;1999.90;999.90;;;22.00;74.10;;;;;;5102563;28;20492;-73
2023/05/01 12:06:53;;;;;;;1999.90;999.90;;;22.10;73.90;;;;;;5102375;28;20495;-73
2023/05/01 12:09:22;;;;;;;1999.90;999.90;;;22.20;74.00;;;;;;5111370;28;20407;-73
2023/05/01 12:11:50;;;;;;;1999.90;999.90;;;22.10;73.90;;;;;;5111066;28;20412;-73
2023/05/01 12:14:18;;;;;;;1999.90;999.90;;;22.20;75.30;;;;;;5111037;28;20403;-73